sensor_id;sensor_type;location;lat;lon;timestamp;P1;durP1;ratioP1;P2;durP2;ratioP2
11877;SDS011;5998;42.676;23.268;2023-06-14T00:02:04;13.37;;;10.33;;
11877;SDS011;5998;42.676;23.268;2023-06-14T00:04:33;12.40;;;10.97;;
11877;SDS011;5998;42.676;23.268;2023-06-14T00:07:00;11.97;;;10.70;;
11877;SDS011;5998;42.676;23.268;2023-06-14T00:09:26;13.43;;;11.10;;
11877;SDS011;5998;42.676;23.268;2023-06-14T00:11:53;12.13;;;10.57;;
11877;SDS011;5998;42.676;23.268;2023-06-14T00:14:19;13.10;;;9.87;;
11877;SDS011;5998;42.676;23.268;2023-06-14T00:16:47;11.97;;;10.13;;
11877;SDS011;5998;42.676;23.268;2023-06-14T00:19:14;13.50;;;9.90;;
11877;SDS011;5998;42.676;23.268;2023-06-14T00:21:40;18.37;;;10.87;;
11877;SDS011;5998;42.676;23.268;2023-06-14T00:24:08;15.10;;;10.50;;
11877;SDS011;5998;42.676;23.268;2023-06-14T00:26:34;12.10;;;10.80;;
11877;SDS011;5998;42.676;23.268;2023-06-14T00:29:01;15.47;;;10.67;;
11877;SDS011;5998;42.676;23.268;2023-06-14T00:31:27;11.17;;;9.97;;
11877;SDS011;5998;42.676;23.268;2023-06-14T00:33:55;15.93;;;10.23;;
11877;SDS011;5998;42.676;23.268;2023-06-14T00:36:22;11.53;;;10.33;;
11877;SDS011;5998;42.676;23.268;2023-06-14T00:38:48;11.60;;;9.87;;
11877;SDS011;5998;42.676;23.268;2023-06-14T00:41:14;14.97;;;10.80;;
11877;SDS011;5998;42.676;23.268;2023-06-14T00:43:41;13.77;;;10.50;;
11877;SDS011;5998;42.676;23.268;2023-06-14T00:46:07;12.57;;;10.23;;
11877;SDS011;5998;42.676;23.268;2023-06-14T00:48:34;12.40;;;10.33;;
11877;SDS011;5998;42.676;23.268;2023-06-14T00:51:02;11.43;;;9.70;;
11877;SDS011;5998;42.676;23.268;2023-06-14T00:53:29;14.13;;;9.90;;
11877;SDS011;5998;42.676;23.268;2023-06-14T00:55:56;13.80;;;9.47;;
11877;SDS011;5998;42.676;23.268;2023-06-14T00:58:22;11.27;;;9.53;;
11877;SDS011;5998;42.676;23.268;2023-06-14T01:00:49;11.47;;;9.37;;
11877;SDS011;5998;42.676;23.268;2023-06-14T01:03:16;10.10;;;8.80;;
11877;SDS011;5998;42.676;23.268;2023-06-14T01:05:46;15.43;;;9.50;;
11877;SDS011;5998;42.676;23.268;2023-06-14T01:08:18;11.30;;;9.27;;
11877;SDS011;5998;42.676;23.268;2023-06-14T01:10:50;12.10;;;8.83;;
11877;SDS011;5998;42.676;23.268;2023-06-14T01:13:20;13.57;;;9.90;;
11877;SDS011;5998;42.676;23.268;2023-06-14T01:15:47;11.20;;;9.40;;
11877;SDS011;5998;42.676;23.268;2023-06-14T01:18:15;13.23;;;10.13;;
11877;SDS011;5998;42.676;23.268;2023-06-14T01:20:43;11.60;;;9.80;;
11877;SDS011;5998;42.676;23.268;2023-06-14T01:23:15;12.60;;;9.77;;
11877;SDS011;5998;42.676;23.268;2023-06-14T01:25:42;15.13;;;9.37;;
11877;SDS011;5998;42.676;23.268;2023-06-14T01:28:09;10.10;;;9.00;;
11877;SDS011;5998;42.676;23.268;2023-06-14T01:30:38;13.00;;;8.63;;
11877;SDS011;5998;42.676;23.268;2023-06-14T01:33:07;10.73;;;9.67;;
11877;SDS011;5998;42.676;23.268;2023-06-14T01:35:34;16.97;;;11.30;;
11877;SDS011;5998;42.676;23.268;2023-06-14T01:38:01;14.70;;;10.83;;
11877;SDS011;5998;42.676;23.268;2023-06-14T01:40:30;13.00;;;9.50;;
11877;SDS011;5998;42.676;23.268;2023-06-14T01:42:57;9.83;;;8.60;;
11877;SDS011;5998;42.676;23.268;2023-06-14T01:45:24;9.97;;;8.97;;
11877;SDS011;5998;42.676;23.268;2023-06-14T01:47:52;10.47;;;9.37;;
11877;SDS011;5998;42.676;23.268;2023-06-14T01:50:18;11.20;;;8.93;;
11877;SDS011;5998;42.676;23.268;2023-06-14T01:52:45;10.37;;;9.17;;
11877;SDS011;5998;42.676;23.268;2023-06-14T01:55:11;8.70;;;7.73;;
11877;SDS011;5998;42.676;23.268;2023-06-14T01:57:39;8.73;;;7.07;;
11877;SDS011;5998;42.676;23.268;2023-06-14T02:00:07;7.73;;;6.93;;
11877;SDS011;5998;42.676;23.268;2023-06-14T02:02:37;7.30;;;6.33;;
11877;SDS011;5998;42.676;23.268;2023-06-14T02:05:04;7.73;;;6.93;;
11877;SDS011;5998;42.676;23.268;2023-06-14T02:07:30;8.83;;;7.50;;
11877;SDS011;5998;42.676;23.268;2023-06-14T02:09:57;9.80;;;7.17;;
11877;SDS011;5998;42.676;23.268;2023-06-14T02:12:23;8.03;;;7.23;;
11877;SDS011;5998;42.676;23.268;2023-06-14T02:14:51;7.87;;;7.07;;
11877;SDS011;5998;42.676;23.268;2023-06-14T02:17:19;8.87;;;7.30;;
11877;SDS011;5998;42.676;23.268;2023-06-14T02:19:45;8.17;;;7.37;;
11877;SDS011;5998;42.676;23.268;2023-06-14T02:22:12;8.13;;;6.93;;
11877;SDS011;5998;42.676;23.268;2023-06-14T02:24:40;8.07;;;7.23;;
11877;SDS011;5998;42.676;23.268;2023-06-14T02:27:06;7.77;;;6.97;;
11877;SDS011;5998;42.676;23.268;2023-06-14T02:29:33;7.57;;;6.87;;
11877;SDS011;5998;42.676;23.268;2023-06-14T02:32:01;7.23;;;6.50;;
11877;SDS011;5998;42.676;23.268;2023-06-14T02:34:28;6.60;;;6.00;;
11877;SDS011;5998;42.676;23.268;2023-06-14T02:36:54;7.30;;;6.27;;
11877;SDS011;5998;42.676;23.268;2023-06-14T02:39:22;6.10;;;5.60;;
11877;SDS011;5998;42.676;23.268;2023-06-14T02:41:48;6.30;;;5.80;;
11877;SDS011;5998;42.676;23.268;2023-06-14T02:44:15;6.00;;;5.50;;
11877;SDS011;5998;42.676;23.268;2023-06-14T02:46:43;6.93;;;5.70;;
11877;SDS011;5998;42.676;23.268;2023-06-14T02:49:11;5.67;;;5.13;;
11877;SDS011;5998;42.676;23.268;2023-06-14T02:51:37;7.30;;;5.33;;
11877;SDS011;5998;42.676;23.268;2023-06-14T02:54:04;6.10;;;5.50;;
11877;SDS011;5998;42.676;23.268;2023-06-14T02:56:30;6.13;;;5.53;;
11877;SDS011;5998;42.676;23.268;2023-06-14T02:58:57;6.30;;;5.70;;
11877;SDS011;5998;42.676;23.268;2023-06-14T03:01:24;7.17;;;6.03;;
11877;SDS011;5998;42.676;23.268;2023-06-14T03:03:58;7.70;;;5.70;;
11877;SDS011;5998;42.676;23.268;2023-06-14T03:06:26;6.83;;;5.90;;
11877;SDS011;5998;42.676;23.268;2023-06-14T03:08:54;8.40;;;6.47;;
11877;SDS011;5998;42.676;23.268;2023-06-14T03:11:22;6.83;;;6.10;;
11877;SDS011;5998;42.676;23.268;2023-06-14T03:13:49;8.47;;;6.57;;
11877;SDS011;5998;42.676;23.268;2023-06-14T03:16:16;11.23;;;6.50;;
11877;SDS011;5998;42.676;23.268;2023-06-14T03:18:45;9.13;;;6.00;;
11877;SDS011;5998;42.676;23.268;2023-06-14T03:21:12;6.30;;;5.70;;
11877;SDS011;5998;42.676;23.268;2023-06-14T03:23:42;5.97;;;5.37;;
11877;SDS011;5998;42.676;23.268;2023-06-14T03:26:08;7.17;;;6.23;;
11877;SDS011;5998;42.676;23.268;2023-06-14T03:28:39;6.20;;;5.70;;
11877;SDS011;5998;42.676;23.268;2023-06-14T03:31:05;6.07;;;5.57;;
11877;SDS011;5998;42.676;23.268;2023-06-14T03:33:32;7.47;;;6.77;;
11877;SDS011;5998;42.676;23.268;2023-06-14T03:35:58;6.80;;;6.20;;
11877;SDS011;5998;42.676;23.268;2023-06-14T03:38:25;6.90;;;6.30;;
11877;SDS011;5998;42.676;23.268;2023-06-14T03:40:53;7.40;;;6.70;;
11877;SDS011;5998;42.676;23.268;2023-06-14T03:43:19;6.93;;;6.30;;
11877;SDS011;5998;42.676;23.268;2023-06-14T03:45:45;8.27;;;6.10;;
11877;SDS011;5998;42.676;23.268;2023-06-14T03:48:12;8.00;;;6.57;;
11877;SDS011;5998;42.676;23.268;2023-06-14T03:50:38;9.07;;;6.90;;
11877;SDS011;5998;42.676;23.268;2023-06-14T03:53:05;9.37;;;7.13;;
11877;SDS011;5998;42.676;23.268;2023-06-14T03:55:32;7.47;;;6.77;;
11877;SDS011;5998;42.676;23.268;2023-06-14T03:58:00;8.87;;;6.47;;
11877;SDS011;5998;42.676;23.268;2023-06-14T04:00:26;6.43;;;5.80;;
11877;SDS011;5998;42.676;23.268;2023-06-14T04:02:53;6.20;;;5.70;;
11877;SDS011;5998;42.676;23.268;2023-06-14T04:05:20;6.47;;;5.87;;
11877;SDS011;5998;42.676;23.268;2023-06-14T04:07:46;8.07;;;6.30;;
11877;SDS011;5998;42.676;23.268;2023-06-14T04:10:13;9.03;;;5.93;;
11877;SDS011;5998;42.676;23.268;2023-06-14T04:12:40;9.50;;;5.97;;
11877;SDS011;5998;42.676;23.268;2023-06-14T04:15:09;6.80;;;6.20;;
11877;SDS011;5998;42.676;23.268;2023-06-14T04:17:36;8.10;;;6.00;;
11877;SDS011;5998;42.676;23.268;2023-06-14T04:20:03;6.43;;;5.13;;
11877;SDS011;5998;42.676;23.268;2023-06-14T04:22:33;5.13;;;4.73;;
11877;SDS011;5998;42.676;23.268;2023-06-14T04:25:00;7.63;;;6.33;;
11877;SDS011;5998;42.676;23.268;2023-06-14T04:27:26;7.00;;;6.30;;
11877;SDS011;5998;42.676;23.268;2023-06-14T04:29:56;6.17;;;5.67;;
11877;SDS011;5998;42.676;23.268;2023-06-14T04:32:24;7.10;;;6.40;;
11877;SDS011;5998;42.676;23.268;2023-06-14T04:34:52;7.13;;;6.03;;
11877;SDS011;5998;42.676;23.268;2023-06-14T04:37:18;6.87;;;6.30;;
11877;SDS011;5998;42.676;23.268;2023-06-14T04:39:46;7.57;;;6.87;;
11877;SDS011;5998;42.676;23.268;2023-06-14T04:42:12;8.03;;;6.73;;
11877;SDS011;5998;42.676;23.268;2023-06-14T04:44:40;7.20;;;6.60;;
11877;SDS011;5998;42.676;23.268;2023-06-14T04:47:06;9.53;;;6.97;;
11877;SDS011;5998;42.676;23.268;2023-06-14T04:49:34;9.83;;;6.90;;
11877;SDS011;5998;42.676;23.268;2023-06-14T04:52:00;7.60;;;6.80;;
11877;SDS011;5998;42.676;23.268;2023-06-14T04:54:27;7.63;;;6.80;;
11877;SDS011;5998;42.676;23.268;2023-06-14T04:56:56;9.50;;;7.10;;
11877;SDS011;5998;42.676;23.268;2023-06-14T04:59:23;7.40;;;6.80;;
11877;SDS011;5998;42.676;23.268;2023-06-14T05:01:49;7.90;;;7.10;;
11877;SDS011;5998;42.676;23.268;2023-06-14T05:04:16;8.03;;;7.27;;
11877;SDS011;5998;42.676;23.268;2023-06-14T05:06:44;8.00;;;7.20;;
11877;SDS011;5998;42.676;23.268;2023-06-14T05:09:13;11.03;;;8.13;;
11877;SDS011;5998;42.676;23.268;2023-06-14T05:11:40;9.17;;;8.20;;
11877;SDS011;5998;42.676;23.268;2023-06-14T05:14:09;8.80;;;8.00;;
11877;SDS011;5998;42.676;23.268;2023-06-14T05:16:35;11.63;;;10.07;;
11877;SDS011;5998;42.676;23.268;2023-06-14T05:19:02;10.93;;;8.10;;
11877;SDS011;5998;42.676;23.268;2023-06-14T05:21:29;10.07;;;9.07;;
11877;SDS011;5998;42.676;23.268;2023-06-14T05:23:57;11.97;;;9.37;;
11877;SDS011;5998;42.676;23.268;2023-06-14T05:26:24;9.33;;;8.53;;
11877;SDS011;5998;42.676;23.268;2023-06-14T05:28:53;9.63;;;8.63;;
11877;SDS011;5998;42.676;23.268;2023-06-14T05:31:21;9.83;;;8.93;;
11877;SDS011;5998;42.676;23.268;2023-06-14T05:33:48;9.07;;;8.17;;
11877;SDS011;5998;42.676;23.268;2023-06-14T05:36:14;14.93;;;9.67;;
11877;SDS011;5998;42.676;23.268;2023-06-14T05:38:41;9.33;;;8.43;;
11877;SDS011;5998;42.676;23.268;2023-06-14T05:41:09;9.93;;;8.93;;
11877;SDS011;5998;42.676;23.268;2023-06-14T05:43:35;10.27;;;9.10;;
11877;SDS011;5998;42.676;23.268;2023-06-14T05:46:02;10.50;;;9.50;;
11877;SDS011;5998;42.676;23.268;2023-06-14T05:48:28;11.80;;;9.53;;
11877;SDS011;5998;42.676;23.268;2023-06-14T05:50:55;10.83;;;9.77;;
11877;SDS011;5998;42.676;23.268;2023-06-14T05:53:21;10.67;;;8.97;;
11877;SDS011;5998;42.676;23.268;2023-06-14T05:55:48;10.00;;;8.33;;
11877;SDS011;5998;42.676;23.268;2023-06-14T05:58:19;11.20;;;9.03;;
11877;SDS011;5998;42.676;23.268;2023-06-14T06:00:45;9.80;;;8.80;;
11877;SDS011;5998;42.676;23.268;2023-06-14T06:03:12;8.87;;;7.90;;
11877;SDS011;5998;42.676;23.268;2023-06-14T06:05:39;9.37;;;8.20;;
11877;SDS011;5998;42.676;23.268;2023-06-14T06:08:05;9.03;;;8.03;;
11877;SDS011;5998;42.676;23.268;2023-06-14T06:10:32;8.90;;;7.80;;
11877;SDS011;5998;42.676;23.268;2023-06-14T06:12:58;8.57;;;7.80;;
11877;SDS011;5998;42.676;23.268;2023-06-14T06:15:26;8.77;;;7.97;;
11877;SDS011;5998;42.676;23.268;2023-06-14T06:17:52;10.23;;;8.13;;
11877;SDS011;5998;42.676;23.268;2023-06-14T06:20:20;9.83;;;8.57;;
11877;SDS011;5998;42.676;23.268;2023-06-14T06:22:52;10.20;;;9.00;;
11877;SDS011;5998;42.676;23.268;2023-06-14T06:25:19;12.83;;;9.77;;
11877;SDS011;5998;42.676;23.268;2023-06-14T06:27:47;10.40;;;9.30;;
11877;SDS011;5998;42.676;23.268;2023-06-14T06:30:13;11.77;;;9.40;;
11877;SDS011;5998;42.676;23.268;2023-06-14T06:32:41;11.73;;;10.37;;
11877;SDS011;5998;42.676;23.268;2023-06-14T06:35:08;10.90;;;9.80;;
11877;SDS011;5998;42.676;23.268;2023-06-14T06:37:36;10.73;;;9.77;;
11877;SDS011;5998;42.676;23.268;2023-06-14T06:40:02;11.17;;;9.93;;
11877;SDS011;5998;42.676;23.268;2023-06-14T06:42:30;10.63;;;9.63;;
11877;SDS011;5998;42.676;23.268;2023-06-14T06:44:57;10.73;;;9.73;;
11877;SDS011;5998;42.676;23.268;2023-06-14T06:47:23;10.97;;;9.73;;
11877;SDS011;5998;42.676;23.268;2023-06-14T06:49:51;16.70;;;10.37;;
11877;SDS011;5998;42.676;23.268;2023-06-14T06:52:18;32.37;;;12.37;;
11877;SDS011;5998;42.676;23.268;2023-06-14T06:54:45;14.03;;;9.70;;
11877;SDS011;5998;42.676;23.268;2023-06-14T06:57:11;14.10;;;10.23;;
11877;SDS011;5998;42.676;23.268;2023-06-14T06:59:38;14.03;;;11.10;;
11877;SDS011;5998;42.676;23.268;2023-06-14T07:02:05;10.57;;;9.53;;
11877;SDS011;5998;42.676;23.268;2023-06-14T07:04:32;11.70;;;10.50;;
11877;SDS011;5998;42.676;23.268;2023-06-14T07:06:59;12.33;;;11.00;;
11877;SDS011;5998;42.676;23.268;2023-06-14T07:09:26;13.70;;;11.00;;
11877;SDS011;5998;42.676;23.268;2023-06-14T07:11:52;14.83;;;11.00;;
11877;SDS011;5998;42.676;23.268;2023-06-14T07:14:19;15.53;;;10.60;;
11877;SDS011;5998;42.676;23.268;2023-06-14T07:16:48;11.20;;;10.13;;
11877;SDS011;5998;42.676;23.268;2023-06-14T07:19:14;13.07;;;11.77;;
11877;SDS011;5998;42.676;23.268;2023-06-14T07:21:41;14.07;;;12.10;;
11877;SDS011;5998;42.676;23.268;2023-06-14T07:24:09;13.57;;;11.40;;
11877;SDS011;5998;42.676;23.268;2023-06-14T07:26:35;15.23;;;12.00;;
11877;SDS011;5998;42.676;23.268;2023-06-14T07:29:02;14.97;;;12.10;;
11877;SDS011;5998;42.676;23.268;2023-06-14T07:31:28;14.67;;;12.90;;
11877;SDS011;5998;42.676;23.268;2023-06-14T07:33:55;13.57;;;12.23;;
11877;SDS011;5998;42.676;23.268;2023-06-14T07:36:21;16.10;;;12.30;;
11877;SDS011;5998;42.676;23.268;2023-06-14T07:38:48;14.60;;;10.80;;
11877;SDS011;5998;42.676;23.268;2023-06-14T07:41:15;14.20;;;11.43;;
11877;SDS011;5998;42.676;23.268;2023-06-14T07:43:42;11.87;;;10.57;;
11877;SDS011;5998;42.676;23.268;2023-06-14T07:46:08;12.23;;;10.70;;
11877;SDS011;5998;42.676;23.268;2023-06-14T07:48:35;13.00;;;11.00;;
11877;SDS011;5998;42.676;23.268;2023-06-14T07:51:01;11.67;;;10.43;;
11877;SDS011;5998;42.676;23.268;2023-06-14T07:53:28;11.33;;;10.20;;
11877;SDS011;5998;42.676;23.268;2023-06-14T07:55:55;11.67;;;9.40;;
11877;SDS011;5998;42.676;23.268;2023-06-14T07:58:23;13.50;;;11.23;;
11877;SDS011;5998;42.676;23.268;2023-06-14T08:00:50;14.13;;;11.83;;
11877;SDS011;5998;42.676;23.268;2023-06-14T08:03:16;13.33;;;12.10;;
11877;SDS011;5998;42.676;23.268;2023-06-14T08:05:43;14.77;;;13.00;;
11877;SDS011;5998;42.676;23.268;2023-06-14T08:08:09;14.67;;;13.17;;
11877;SDS011;5998;42.676;23.268;2023-06-14T08:10:36;14.47;;;13.17;;
11877;SDS011;5998;42.676;23.268;2023-06-14T08:13:02;13.40;;;11.90;;
11877;SDS011;5998;42.676;23.268;2023-06-14T08:15:30;15.97;;;12.23;;
11877;SDS011;5998;42.676;23.268;2023-06-14T08:17:57;14.23;;;12.80;;
11877;SDS011;5998;42.676;23.268;2023-06-14T08:20:24;13.83;;;12.37;;
11877;SDS011;5998;42.676;23.268;2023-06-14T08:22:51;13.87;;;12.47;;
11877;SDS011;5998;42.676;23.268;2023-06-14T08:25:20;14.33;;;12.77;;
11877;SDS011;5998;42.676;23.268;2023-06-14T08:27:47;14.17;;;12.53;;
11877;SDS011;5998;42.676;23.268;2023-06-14T08:30:13;13.53;;;12.20;;
11877;SDS011;5998;42.676;23.268;2023-06-14T08:32:41;13.77;;;12.47;;
11877;SDS011;5998;42.676;23.268;2023-06-14T08:35:08;13.77;;;12.37;;
11877;SDS011;5998;42.676;23.268;2023-06-14T08:37:37;13.40;;;11.87;;
11877;SDS011;5998;42.676;23.268;2023-06-14T08:40:04;10.57;;;9.57;;
11877;SDS011;5998;42.676;23.268;2023-06-14T08:42:34;12.30;;;11.03;;
11877;SDS011;5998;42.676;23.268;2023-06-14T08:45:02;16.57;;;12.23;;
11877;SDS011;5998;42.676;23.268;2023-06-14T08:47:29;12.70;;;11.60;;
11877;SDS011;5998;42.676;23.268;2023-06-14T08:50:03;14.70;;;11.93;;
11877;SDS011;5998;42.676;23.268;2023-06-14T08:52:31;13.93;;;12.53;;
11877;SDS011;5998;42.676;23.268;2023-06-14T08:54:59;13.53;;;11.87;;
11877;SDS011;5998;42.676;23.268;2023-06-14T08:57:27;12.40;;;10.30;;
11877;SDS011;5998;42.676;23.268;2023-06-14T08:59:55;12.40;;;11.20;;
11877;SDS011;5998;42.676;23.268;2023-06-14T09:02:22;12.10;;;11.00;;
11877;SDS011;5998;42.676;23.268;2023-06-14T09:04:50;12.97;;;11.57;;
11877;SDS011;5998;42.676;23.268;2023-06-14T09:07:18;14.77;;;11.47;;
11877;SDS011;5998;42.676;23.268;2023-06-14T09:09:44;14.37;;;11.80;;
11877;SDS011;5998;42.676;23.268;2023-06-14T09:12:11;15.87;;;12.03;;
11877;SDS011;5998;42.676;23.268;2023-06-14T09:14:37;12.83;;;11.03;;
11877;SDS011;5998;42.676;23.268;2023-06-14T09:17:06;11.70;;;10.50;;
11877;SDS011;5998;42.676;23.268;2023-06-14T09:19:33;16.00;;;11.80;;
11877;SDS011;5998;42.676;23.268;2023-06-14T09:22:00;13.77;;;12.43;;
11877;SDS011;5998;42.676;23.268;2023-06-14T09:24:28;17.57;;;12.23;;
11877;SDS011;5998;42.676;23.268;2023-06-14T09:26:54;14.87;;;12.00;;
11877;SDS011;5998;42.676;23.268;2023-06-14T09:29:22;11.40;;;10.20;;
11877;SDS011;5998;42.676;23.268;2023-06-14T09:31:49;13.20;;;11.90;;
11877;SDS011;5998;42.676;23.268;2023-06-14T09:34:15;11.93;;;10.80;;
11877;SDS011;5998;42.676;23.268;2023-06-14T09:36:43;11.33;;;9.07;;
11877;SDS011;5998;42.676;23.268;2023-06-14T09:39:09;12.40;;;10.90;;
11877;SDS011;5998;42.676;23.268;2023-06-14T09:41:38;12.73;;;11.23;;
11877;SDS011;5998;42.676;23.268;2023-06-14T09:44:05;16.73;;;11.27;;
11877;SDS011;5998;42.676;23.268;2023-06-14T09:46:32;9.87;;;8.87;;
11877;SDS011;5998;42.676;23.268;2023-06-14T09:48:59;12.00;;;10.77;;
11877;SDS011;5998;42.676;23.268;2023-06-14T09:51:26;12.30;;;11.10;;
11877;SDS011;5998;42.676;23.268;2023-06-14T09:53:55;13.17;;;11.30;;
11877;SDS011;5998;42.676;23.268;2023-06-14T09:56:26;12.03;;;10.67;;
11877;SDS011;5998;42.676;23.268;2023-06-14T09:58:55;13.07;;;10.50;;
11877;SDS011;5998;42.676;23.268;2023-06-14T10:01:21;12.53;;;11.13;;
11877;SDS011;5998;42.676;23.268;2023-06-14T10:03:49;12.40;;;11.10;;
11877;SDS011;5998;42.676;23.268;2023-06-14T10:06:16;12.53;;;11.30;;
11877;SDS011;5998;42.676;23.268;2023-06-14T10:08:43;13.10;;;11.63;;
11877;SDS011;5998;42.676;23.268;2023-06-14T10:11:11;12.80;;;11.60;;
11877;SDS011;5998;42.676;23.268;2023-06-14T10:13:38;12.50;;;11.10;;
11877;SDS011;5998;42.676;23.268;2023-06-14T10:16:07;12.33;;;11.13;;
11877;SDS011;5998;42.676;23.268;2023-06-14T10:18:37;13.60;;;12.20;;
11877;SDS011;5998;42.676;23.268;2023-06-14T10:21:13;13.57;;;12.20;;
11877;SDS011;5998;42.676;23.268;2023-06-14T10:23:43;13.43;;;10.27;;
11877;SDS011;5998;42.676;23.268;2023-06-14T10:26:17;13.13;;;11.83;;
11877;SDS011;5998;42.676;23.268;2023-06-14T10:28:43;13.03;;;11.70;;
11877;SDS011;5998;42.676;23.268;2023-06-14T10:31:22;11.80;;;10.70;;
11877;SDS011;5998;42.676;23.268;2023-06-14T10:33:49;13.27;;;11.40;;
11877;SDS011;5998;42.676;23.268;2023-06-14T10:36:25;13.43;;;10.93;;
11877;SDS011;5998;42.676;23.268;2023-06-14T10:38:58;12.10;;;10.90;;
11877;SDS011;5998;42.676;23.268;2023-06-14T10:41:26;12.20;;;9.93;;
11877;SDS011;5998;42.676;23.268;2023-06-14T10:43:53;15.77;;;13.00;;
11877;SDS011;5998;42.676;23.268;2023-06-14T10:46:38;13.90;;;12.57;;
11877;SDS011;5998;42.676;23.268;2023-06-14T10:49:04;10.50;;;9.57;;
11877;SDS011;5998;42.676;23.268;2023-06-14T10:51:37;13.37;;;12.00;;
11877;SDS011;5998;42.676;23.268;2023-06-14T10:54:11;34.33;;;15.30;;
11877;SDS011;5998;42.676;23.268;2023-06-14T10:56:37;20.40;;;12.50;;
11877;SDS011;5998;42.676;23.268;2023-06-14T10:59:04;15.07;;;11.67;;
11877;SDS011;5998;42.676;23.268;2023-06-14T11:01:35;13.70;;;12.43;;
11877;SDS011;5998;42.676;23.268;2023-06-14T11:04:08;13.90;;;11.20;;
11877;SDS011;5998;42.676;23.268;2023-06-14T11:06:44;26.57;;;11.80;;
11877;SDS011;5998;42.676;23.268;2023-06-14T11:12:01;11.83;;;10.63;;
11877;SDS011;5998;42.676;23.268;2023-06-14T11:14:29;15.93;;;10.77;;
11877;SDS011;5998;42.676;23.268;2023-06-14T11:16:55;11.53;;;10.27;;
11877;SDS011;5998;42.676;23.268;2023-06-14T11:19:23;14.47;;;10.23;;
11877;SDS011;5998;42.676;23.268;2023-06-14T11:21:51;10.93;;;9.93;;
11877;SDS011;5998;42.676;23.268;2023-06-14T11:24:19;10.57;;;9.17;;
11877;SDS011;5998;42.676;23.268;2023-06-14T11:26:46;11.50;;;10.30;;
11877;SDS011;5998;42.676;23.268;2023-06-14T11:29:14;11.67;;;10.47;;
11877;SDS011;5998;42.676;23.268;2023-06-14T11:31:43;12.07;;;9.83;;
11877;SDS011;5998;42.676;23.268;2023-06-14T11:34:10;10.35;;;8.75;;
11877;SDS011;5998;42.676;23.268;2023-06-14T11:36:39;9.50;;;8.50;;
11877;SDS011;5998;42.676;23.268;2023-06-14T11:39:07;10.15;;;9.15;;
11877;SDS011;5998;42.676;23.268;2023-06-14T11:41:35;9.95;;;9.05;;
11877;SDS011;5998;42.676;23.268;2023-06-14T11:44:02;15.82;;;10.93;;
11877;SDS011;5998;42.676;23.268;2023-06-14T11:46:28;10.73;;;9.45;;
11877;SDS011;5998;42.676;23.268;2023-06-14T11:48:55;25.27;;;11.00;;
11877;SDS011;5998;42.676;23.268;2023-06-14T11:51:21;18.95;;;10.68;;
11877;SDS011;5998;42.676;23.268;2023-06-14T11:53:49;11.65;;;9.20;;
11877;SDS011;5998;42.676;23.268;2023-06-14T11:56:16;10.35;;;9.30;;
11877;SDS011;5998;42.676;23.268;2023-06-14T11:58:43;10.95;;;9.48;;
11877;SDS011;5998;42.676;23.268;2023-06-14T12:01:09;17.77;;;9.57;;
11877;SDS011;5998;42.676;23.268;2023-06-14T12:03:41;10.38;;;9.40;;
11877;SDS011;5998;42.676;23.268;2023-06-14T12:06:13;10.20;;;8.83;;
11877;SDS011;5998;42.676;23.268;2023-06-14T12:08:40;8.18;;;7.38;;
11877;SDS011;5998;42.676;23.268;2023-06-14T12:11:10;10.63;;;9.73;;
11877;SDS011;5998;42.676;23.268;2023-06-14T12:13:37;12.30;;;8.63;;
11877;SDS011;5998;42.676;23.268;2023-06-14T12:16:06;9.07;;;7.55;;
11877;SDS011;5998;42.676;23.268;2023-06-14T12:18:33;10.45;;;7.50;;
11877;SDS011;5998;42.676;23.268;2023-06-14T12:21:00;8.07;;;7.38;;
11877;SDS011;5998;42.676;23.268;2023-06-14T12:23:38;8.10;;;7.38;;
11877;SDS011;5998;42.676;23.268;2023-06-14T12:26:04;7.93;;;7.28;;
11877;SDS011;5998;42.676;23.268;2023-06-14T12:28:32;7.93;;;7.32;;
11877;SDS011;5998;42.676;23.268;2023-06-14T12:30:59;8.48;;;7.68;;
11877;SDS011;5998;42.676;23.268;2023-06-14T12:33:25;10.52;;;7.60;;
11877;SDS011;5998;42.676;23.268;2023-06-14T12:35:53;9.25;;;7.68;;
11877;SDS011;5998;42.676;23.268;2023-06-14T12:38:20;7.13;;;6.43;;
11877;SDS011;5998;42.676;23.268;2023-06-14T12:40:47;7.07;;;6.40;;
11877;SDS011;5998;42.676;23.268;2023-06-14T12:43:14;9.45;;;6.95;;
11877;SDS011;5998;42.676;23.268;2023-06-14T12:45:42;11.88;;;7.25;;
11877;SDS011;5998;42.676;23.268;2023-06-14T12:48:09;7.85;;;7.00;;
11877;SDS011;5998;42.676;23.268;2023-06-14T12:50:35;6.78;;;6.18;;
11877;SDS011;5998;42.676;23.268;2023-06-14T12:53:02;6.78;;;6.07;;
11877;SDS011;5998;42.676;23.268;2023-06-14T12:55:28;7.45;;;6.85;;
11877;SDS011;5998;42.676;23.268;2023-06-14T12:57:55;7.35;;;6.65;;
11877;SDS011;5998;42.676;23.268;2023-06-14T13:00:21;7.30;;;6.18;;
11877;SDS011;5998;42.676;23.268;2023-06-14T13:02:50;7.03;;;6.32;;
11877;SDS011;5998;42.676;23.268;2023-06-14T13:05:16;7.10;;;6.40;;
11877;SDS011;5998;42.676;23.268;2023-06-14T13:07:43;10.82;;;7.00;;
11877;SDS011;5998;42.676;23.268;2023-06-14T13:10:10;7.18;;;6.50;;
11877;SDS011;5998;42.676;23.268;2023-06-14T13:12:36;8.20;;;6.50;;
11877;SDS011;5998;42.676;23.268;2023-06-14T13:15:03;7.07;;;6.43;;
11877;SDS011;5998;42.676;23.268;2023-06-14T13:17:29;7.32;;;6.72;;
11877;SDS011;5998;42.676;23.268;2023-06-14T13:19:59;7.15;;;6.43;;
11877;SDS011;5998;42.676;23.268;2023-06-14T13:22:26;7.53;;;6.83;;
11877;SDS011;5998;42.676;23.268;2023-06-14T13:24:52;8.57;;;7.20;;
11877;SDS011;5998;42.676;23.268;2023-06-14T13:27:19;10.53;;;6.53;;
11877;SDS011;5998;42.676;23.268;2023-06-14T13:29:45;6.80;;;6.30;;
11877;SDS011;5998;42.676;23.268;2023-06-14T13:32:12;6.83;;;6.13;;
11877;SDS011;5998;42.676;23.268;2023-06-14T13:34:38;7.40;;;6.10;;
11877;SDS011;5998;42.676;23.268;2023-06-14T13:37:06;6.90;;;6.30;;
11877;SDS011;5998;42.676;23.268;2023-06-14T13:39:33;7.47;;;6.87;;
11877;SDS011;5998;42.676;23.268;2023-06-14T13:42:02;7.90;;;7.20;;
11877;SDS011;5998;42.676;23.268;2023-06-14T13:44:29;8.93;;;7.53;;
11877;SDS011;5998;42.676;23.268;2023-06-14T13:46:55;7.60;;;6.90;;
11877;SDS011;5998;42.676;23.268;2023-06-14T13:49:21;10.10;;;7.67;;
11877;SDS011;5998;42.676;23.268;2023-06-14T13:51:48;8.10;;;7.30;;
11877;SDS011;5998;42.676;23.268;2023-06-14T13:54:18;11.03;;;7.33;;
11877;SDS011;5998;42.676;23.268;2023-06-14T13:56:45;7.90;;;7.10;;
11877;SDS011;5998;42.676;23.268;2023-06-14T13:59:12;7.90;;;7.17;;
11877;SDS011;5998;42.676;23.268;2023-06-14T14:01:38;8.47;;;7.57;;
11877;SDS011;5998;42.676;23.268;2023-06-14T14:04:04;7.77;;;7.07;;
11877;SDS011;5998;42.676;23.268;2023-06-14T14:06:31;8.50;;;7.60;;
11877;SDS011;5998;42.676;23.268;2023-06-14T14:08:58;7.73;;;7.13;;
11877;SDS011;5998;42.676;23.268;2023-06-14T14:11:26;8.70;;;7.80;;
11877;SDS011;5998;42.676;23.268;2023-06-14T14:13:53;8.67;;;7.87;;
11877;SDS011;5998;42.676;23.268;2023-06-14T14:16:19;10.13;;;9.33;;
11877;SDS011;5998;42.676;23.268;2023-06-14T14:18:45;10.80;;;8.40;;
11877;SDS011;5998;42.676;23.268;2023-06-14T14:21:12;11.00;;;9.70;;
11877;SDS011;5998;42.676;23.268;2023-06-14T14:23:38;9.83;;;8.73;;
11877;SDS011;5998;42.676;23.268;2023-06-14T14:26:05;11.27;;;9.67;;
11877;SDS011;5998;42.676;23.268;2023-06-14T14:28:33;11.80;;;10.60;;
11877;SDS011;5998;42.676;23.268;2023-06-14T14:30:59;11.47;;;10.37;;
11877;SDS011;5998;42.676;23.268;2023-06-14T14:33:26;21.00;;;19.10;;
11877;SDS011;5998;42.676;23.268;2023-06-14T14:35:52;14.83;;;13.47;;
11877;SDS011;5998;42.676;23.268;2023-06-14T14:38:18;7.73;;;7.03;;
11877;SDS011;5998;42.676;23.268;2023-06-14T14:40:45;11.23;;;7.27;;